全部
Yarram Airport (Yarram, Victoria) YYRM 天氣
|
Yarram, Victoria (YYRM)
晴天
多風 |
|
15 °C |
There is no TAF data available at YYRM. Showing TAF data for YLTV (29 mi NW).
TGN終端機場天氣預報(YYRM無資料)
| Here is the undecoded forecast: 2026/05/04 22:04 YLTV 042204Z 0422/0508 26015G25KT 9999 -SHRA SCT012 BKN025 FM050500 27014KT 9999 NSW BKN030 TEMPO 0422/0505 27018G30KT 4000 SHRA BKN012 RMK FM042200 MOD TURB BLW 5000FT TL050200 T 14 14 15 14 Q 1016 1018 1018 1020 |
YYRM近期METAR歷史資料
| Date | Time (AEST) | Flight Rules | Wind Dir. | Speed | Type | Height AGL (ft) | Visibility | Temp (°C) | Temp (°F) | Dew Point (°C) | Dew Point (°F) | Rel. Humid. | Pressure | Density Altitude | Remarks |
|---|---|---|---|---|---|---|---|---|---|---|---|---|---|---|---|
| 05-五月 | 09:00 | n/a | 280° | 14 kt | Missing | 15° | 59° | 13° | 55° | 88% | 1016 mb | -20 ft | |||
| 05-五月 | 08:00 | n/a | 280° | 14 kt | Missing | 14° | 57° | 13° | 55° | 94% | 1015 mb | -111 ft | |||
| 05-五月 | 07:00 | n/a | 300° | 11 kt | Missing | 13° | 55° | 12° | 53° | 94% | 1014 mb | -201 ft | |||
| 05-五月 | 06:00 | n/a | 290° | 14 kt | Missing | 14° | 57° | 12° | 53° | 88% | 1013 mb | -52 ft | |||
| 05-五月 | 05:00 | n/a | 290° | 15 kt | Missing | 14° | 57° | 11° | 51° | 82% | 1012 mb | -22 ft | |||
| 05-五月 | 04:00 | n/a | 300° | 13 kt | Missing | 13° | 55° | 10° | 50° | 82% | 1011 mb | -113 ft | |||
| 05-五月 | 03:00 | n/a | 310° | 18 kt | Missing | 14° | 57° | 10° | 50° | 77% | 1011 mb | 7 ft | |||
| 05-五月 | 02:00 | n/a | 310° | 18 kt | Missing | 15° | 59° | 10° | 50° | 72% | 1011 mb | 127 ft | |||
| 05-五月 | 01:00 | n/a | 310° | 18 kt | Missing | 15° | 59° | 9° | 48° | 67% | 1010 mb | 157 ft | |||
| 05-五月 | 00:00 | n/a | 310° | 17 kt | Missing | 16° | 60° | 9° | 48° | 63% | 1010 mb | 277 ft | |||
| 04-五月 | 23:00 | n/a | 330° | 13 kt | Missing | 16° | 60° | 9° | 48° | 63% | 1011 mb | 247 ft | |||
| 04-五月 | 22:00 | n/a | 330° | 12 kt | Missing | 16° | 60° | 9° | 48° | 63% | 1011 mb | 247 ft | |||
| 04-五月 | 21:00 | n/a | 340° | 7 kt | Missing | 16° | 60° | 8° | 46° | 59% | 1011 mb | 247 ft | |||
| 04-五月 | 20:00 | n/a | 60° | 5 kt | Missing | 13° | 55° | 8° | 46° | 72% | 1010 mb | -83 ft | |||
| 04-五月 | 19:00 | n/a | 50° | 5 kt | Missing | 15° | 59° | 7° | 44° | 59% | 1010 mb | 157 ft | |||
| 04-五月 | 18:00 | n/a | 10° | 7 kt | Missing | 16° | 60° | 7° | 44° | 55% | 1009 mb | 306 ft | |||
| 04-五月 | 17:00 | n/a | 360° | 7 kt | Missing | 18° | 64° | 8° | 46° | 52% | 1009 mb | 546 ft | |||
| 04-五月 | 16:00 | n/a | 340° | 7 kt | Missing | 19° | 66° | 8° | 46° | 49% | 1009 mb | 666 ft | |||
| 04-五月 | 15:00 | n/a | 330° | 12 kt | Missing | 20° | 68° | 8° | 46° | 46% | 1009 mb | 786 ft | |||
| 04-五月 | 14:00 | n/a | 350° | 15 kt | Missing | 20° | 68° | 7° | 44° | 43% | 1009 mb | 786 ft | |||
| 04-五月 | 13:00 | n/a | 360° | 14 kt | Missing | 20° | 68° | 9° | 48° | 49% | 1009 mb | 786 ft | |||
| 04-五月 | 12:00 | n/a | 360° | 14 kt | Missing | 20° | 68° | 9° | 48° | 49% | 1010 mb | 757 ft | |||
| 04-五月 | 11:00 | n/a | 360° | 11 kt | Missing | 19° | 66° | 10° | 50° | 56% | 1011 mb | 607 ft | |||
| 04-五月 | 10:00 | n/a | 10° | 10 kt | Missing | 18° | 64° | 10° | 50° | 59% | 1012 mb | 458 ft |
登入
| 您的瀏覽器不支援. 升級您的瀏覽器 |
